createdAt,value
2022-08-03T00:00:55.823Z,99457.70
2022-08-03T00:01:59.418Z,99449.61
2022-08-03T00:03:01.889Z,99449.61
2022-08-03T00:04:05.058Z,99445.94
2022-08-03T00:05:08.944Z,99445.06
2022-08-03T00:06:12.762Z,99448.62
2022-08-03T00:07:14.911Z,99448.62
2022-08-03T00:08:19.052Z,99444.08
2022-08-03T00:09:22.188Z,99448.48
2022-08-03T00:10:27.323Z,99450.19
2022-08-03T00:11:29.596Z,99439.41
2022-08-03T00:12:32.658Z,99441.95
2022-08-03T00:13:35.035Z,99441.09
2022-08-03T00:14:37.594Z,99438.54
2022-08-03T00:15:41.035Z,99439.53
2022-08-03T00:16:43.803Z,99447.61
2022-08-03T00:17:53.674Z,99434.14
2022-08-03T00:18:49.947Z,99434.14
2022-08-03T00:19:52.305Z,99438.54
2022-08-03T00:20:55.247Z,99438.69
2022-08-03T00:21:58.325Z,99434.28
2022-08-03T00:23:01.720Z,99433.45
2022-08-03T00:24:06.647Z,99434.43
2022-08-03T00:25:09.099Z,99435.30
2022-08-03T00:26:11.970Z,99438.84
2022-08-03T00:27:16.742Z,99445.06
2022-08-03T00:28:19.768Z,99445.94
2022-08-03T00:29:22.087Z,99448.62
2022-08-03T00:30:26.906Z,99451.33
2022-08-03T00:31:40.099Z,99446.77
2022-08-03T00:32:34.575Z,99452.16
2022-08-03T00:33:59.061Z,99450.45
2022-08-03T00:34:57.547Z,99456.72
2022-08-03T00:35:50.447Z,99455.84
2022-08-03T00:36:51.523Z,99456.72
2022-08-03T00:37:54.971Z,99455.70
2022-08-03T00:38:58.363Z,99448.62
2022-08-03T00:40:03.573Z,99457.70
2022-08-03T00:41:06.853Z,99457.70
2022-08-03T00:42:10.476Z,99457.70
2022-08-03T00:43:13.521Z,99458.53
2022-08-03T00:44:15.985Z,99460.39
2022-08-03T00:45:18.760Z,99462.25
2022-08-03T00:46:23.674Z,99457.84
2022-08-03T00:47:26.144Z,99457.84
2022-08-03T00:48:33.166Z,99461.38
2022-08-03T00:49:33.030Z,99455.84
2022-08-03T00:50:38.142Z,99454.02
2022-08-03T00:51:40.395Z,99454.02
2022-08-03T00:52:43.284Z,99454.02
2022-08-03T00:53:45.862Z,99453.14
2022-08-03T00:54:49.321Z,99454.02
2022-08-03T00:55:53.130Z,99455.00
2022-08-03T00:56:59.833Z,99453.44
2022-08-03T00:58:01.338Z,99451.62
2022-08-03T00:59:04.596Z,99462.39
2022-08-03T01:00:09.553Z,99461.52
2022-08-03T01:01:12.472Z,99457.99
2022-08-03T01:02:15.615Z,99461.52
2022-08-03T01:03:18.419Z,99455.30
2022-08-03T01:04:20.657Z,99457.01
2022-08-03T01:05:22.997Z,99452.45
2022-08-03T01:06:30.473Z,99460.54
2022-08-03T01:09:18.558Z,99462.09
2022-08-03T01:10:29.561Z,99459.55
2022-08-03T01:11:37.339Z,99465.09
2022-08-03T01:12:50.999Z,99462.52
2022-08-03T01:14:19.007Z,99467.90
2022-08-03T01:15:38.571Z,99470.59
2022-08-03T01:18:18.655Z,99463.52
2022-08-03T01:19:39.715Z,99460.98
2022-08-03T01:20:45.922Z,99465.50
2022-08-03T01:22:01.498Z,99465.64
2022-08-03T01:23:14.150Z,99462.11
2022-08-03T01:24:29.182Z,99460.26
2022-08-03T01:25:54.337Z,99463.94
2022-08-03T01:28:34.718Z,99465.64
2022-08-03T01:30:00.729Z,99462.11
2022-08-03T01:31:10.058Z,99455.16
2022-08-03T01:33:34.131Z,99465.09
2022-08-03T01:34:40.895Z,99457.86
2022-08-03T01:36:58.102Z,99461.38
2022-08-03T01:38:06.104Z,99460.55
2022-08-03T01:39:08.471Z,99462.41
2022-08-03T01:40:13.088Z,99456.88
2022-08-03T01:42:30.071Z,99457.70
2022-08-03T01:44:28.303Z,99468.63
2022-08-03T01:44:40.248Z,99459.71
2022-08-03T01:45:43.332Z,99459.56
2022-08-03T01:46:47.670Z,99455.02
2022-08-03T01:47:50.098Z,99459.42
2022-08-03T01:48:52.383Z,99459.42
2022-08-03T01:49:55.031Z,99463.79
2022-08-03T01:50:57.508Z,99463.67
2022-08-03T01:52:04.929Z,99464.52
2022-08-03T01:53:04.009Z,99463.53
2022-08-03T01:54:07.446Z,99466.08
2022-08-03T01:55:10.853Z,99463.38
2022-08-03T01:56:14.013Z,99465.20
2022-08-03T01:57:16.265Z,99457.99
2022-08-03T01:58:18.937Z,99457.99
2022-08-03T01:59:21.086Z,99459.70
2022-08-03T02:00:25.508Z,99458.69
2022-08-03T02:02:28.225Z,99468.48
2022-08-03T02:02:34.651Z,99458.53
2022-08-03T02:04:00.444Z,99459.55
2022-08-03T02:04:43.664Z,99464.80
2022-08-03T02:05:48.056Z,99459.55
2022-08-03T02:07:01.891Z,99468.48
2022-08-03T02:07:55.761Z,99445.95
2022-08-03T02:08:58.142Z,99445.95
2022-08-03T02:10:01.197Z,99460.25
2022-08-03T02:11:04.383Z,99464.80
2022-08-03T02:12:08.723Z,99462.10
2022-08-03T02:13:11.258Z,99464.80
2022-08-03T02:14:13.936Z,99472.88
2022-08-03T02:15:16.703Z,99470.04
2022-08-03T02:16:20.845Z,99463.78
2022-08-03T02:17:39.819Z,99469.05
2022-08-03T02:18:28.496Z,99468.91
2022-08-03T02:19:35.656Z,99471.60
2022-08-03T02:20:37.523Z,99472.44
2022-08-03T02:21:56.426Z,99475.97
2022-08-03T02:22:44.503Z,99468.91
2022-08-03T02:23:47.171Z,99468.91
2022-08-03T02:24:51.266Z,99464.50
2022-08-03T02:26:00.001Z,99467.20
2022-08-03T02:27:05.824Z,99458.97
2022-08-03T02:28:12.291Z,99463.52
2022-08-03T02:29:17.201Z,99464.36
2022-08-03T02:30:19.775Z,99462.50
2022-08-03T02:31:28.005Z,99466.21
2022-08-03T02:32:32.380Z,99465.19
2022-08-03T02:33:37.409Z,99460.67
2022-08-03T02:34:40.044Z,99469.59
2022-08-03T02:35:42.277Z,99466.06
2022-08-03T02:36:46.413Z,99465.19
2022-08-03T02:37:51.872Z,99466.06
2022-08-03T02:38:57.558Z,99458.13
2022-08-03T02:40:04.022Z,99454.56
2022-08-03T02:41:13.835Z,99457.26
2022-08-03T02:42:17.593Z,99451.87
2022-08-03T02:43:21.521Z,99454.56
2022-08-03T02:44:24.891Z,99453.72
2022-08-03T02:45:27.563Z,99458.27
2022-08-03T02:47:53.552Z,99455.41
2022-08-03T02:48:49.726Z,99457.41
2022-08-03T02:49:52.696Z,99455.70
2022-08-03T02:50:57.596Z,99463.78
2022-08-03T02:52:02.015Z,99449.47
2022-08-03T02:53:04.279Z,99458.39
2022-08-03T02:54:06.621Z,99461.09
2022-08-03T02:55:09.195Z,99459.27
2022-08-03T02:56:13.541Z,99464.65
2022-08-03T02:57:15.762Z,99463.66
2022-08-03T02:58:19.052Z,99460.09
2022-08-03T02:59:21.304Z,99460.09
2022-08-03T03:00:28.182Z,99455.58
2022-08-03T03:01:29.488Z,99453.00
2022-08-03T03:02:31.885Z,99454.86
2022-08-03T03:03:44.654Z,99456.72
2022-08-03T03:04:38.375Z,99450.30
2022-08-03T03:05:54.490Z,99450.30
2022-08-03T03:06:47.260Z,99450.30
2022-08-03T03:07:51.948Z,99451.33
2022-08-03T03:08:59.638Z,99457.70
2022-08-03T03:10:01.311Z,99453.30
2022-08-03T03:11:03.875Z,99457.01
2022-08-03T03:12:07.570Z,99454.16
2022-08-03T03:13:09.936Z,99457.84
2022-08-03T03:14:12.407Z,99469.46
2022-08-03T03:15:14.739Z,99456.14
2022-08-03T03:16:18.749Z,99463.38
2022-08-03T03:17:20.909Z,99459.70
2022-08-03T03:18:23.477Z,99458.83
2022-08-03T03:19:25.756Z,99463.38
2022-08-03T03:20:30.622Z,99465.20
2022-08-03T03:21:33.415Z,99461.81
2022-08-03T03:22:37.228Z,99460.98
2022-08-03T03:23:41.741Z,99465.35
2022-08-03T03:24:44.616Z,99465.35
2022-08-03T03:25:46.978Z,99468.19
2022-08-03T03:26:50.056Z,99467.20
2022-08-03T03:27:52.625Z,99466.38
2022-08-03T03:28:55.291Z,99470.89
2022-08-03T03:29:57.843Z,99483.37
2022-08-03T03:31:00.429Z,99477.98
2022-08-03T03:32:03.043Z,99473.44
2022-08-03T03:33:07.639Z,99473.44
2022-08-03T03:34:10.420Z,99477.14
2022-08-03T03:35:13.662Z,99483.37
2022-08-03T03:36:16.981Z,99477.98
2022-08-03T03:37:19.364Z,99490.47
2022-08-03T03:38:22.180Z,99492.30
2022-08-03T03:39:24.954Z,99478.83
2022-08-03T03:40:28.430Z,99494.01
2022-08-03T03:41:31.206Z,99501.25
2022-08-03T03:42:35.541Z,99494.01
2022-08-03T03:43:38.014Z,99498.41
2022-08-03T03:44:40.347Z,99493.02
2022-08-03T03:45:44.236Z,99492.03
2022-08-03T03:46:47.048Z,99489.34
2022-08-03T03:47:51.336Z,99493.02
2022-08-03T03:48:53.839Z,99497.42
2022-08-03T03:49:57.290Z,99494.01
2022-08-03T03:51:00.585Z,99493.86
2022-08-03T03:52:03.199Z,99502.81
2022-08-03T03:53:09.203Z,99492.03
2022-08-03T03:54:11.904Z,99500.13
2022-08-03T03:55:17.865Z,99500.96
2022-08-03T03:56:22.197Z,99494.73
2022-08-03T03:57:24.671Z,99504.64
2022-08-03T03:58:27.440Z,99502.09
2022-08-03T03:59:29.623Z,99499.39
2022-08-03T04:00:33.319Z,99510.31
2022-08-03T04:01:37.387Z,99508.61
2022-08-03T04:02:39.820Z,99510.61
2022-08-03T04:03:42.710Z,99506.20
2022-08-03T04:04:46.147Z,99509.05
2022-08-03T04:05:48.681Z,99509.88
2022-08-03T04:06:51.037Z,99500.96
2022-08-03T04:07:59.748Z,99502.81
2022-08-03T04:09:04.472Z,99499.11
2022-08-03T04:10:15.846Z,99506.35
2022-08-03T04:11:33.052Z,99507.34
2022-08-03T04:12:36.438Z,99511.73
2022-08-03T04:14:02.332Z,99500.13
2022-08-03T04:15:05.743Z,99510.03
2022-08-03T04:16:11.561Z,99502.09
2022-08-03T04:17:13.913Z,99502.09
2022-08-03T04:18:16.181Z,99504.93
2022-08-03T04:19:27.991Z,99497.83
2022-08-03T04:20:32.506Z,99504.20
2022-08-03T04:21:37.981Z,99506.06
2022-08-03T04:22:41.216Z,99501.66
2022-08-03T04:23:45.998Z,99492.73
2022-08-03T04:24:50.217Z,99496.27
2022-08-03T04:25:52.710Z,99501.66
2022-08-03T04:26:55.889Z,99501.66
2022-08-03T04:28:08.199Z,99498.96
2022-08-03T04:29:05.222Z,99492.59
2022-08-03T04:30:08.925Z,99500.52
2022-08-03T04:31:12.128Z,99492.45
2022-08-03T04:32:15.623Z,99490.63
2022-08-03T04:33:18.358Z,99500.38
2022-08-03T04:34:22.258Z,99496.98
2022-08-03T04:35:25.131Z,99497.07
2022-08-03T04:36:33.174Z,99494.17
2022-08-03T04:37:44.396Z,99507.41
2022-08-03T04:38:59.419Z,99508.41
2022-08-03T04:40:02.361Z,99511.98
2022-08-03T04:41:05.758Z,99513.37
2022-08-03T04:42:09.366Z,99514.17
2022-08-03T04:43:12.176Z,99518.16
2022-08-03T04:44:14.962Z,99515.04
2022-08-03T04:45:17.529Z,99524.10
2022-08-03T04:46:20.082Z,99520.70
2022-08-03T04:47:22.486Z,99523.39
2022-08-03T04:48:24.814Z,99521.70
2022-08-03T04:49:27.493Z,99522.33
2022-08-03T04:50:31.003Z,99523.06
2022-08-03T04:51:39.250Z,99523.06
2022-08-03T04:52:41.714Z,99527.47
2022-08-03T04:53:44.600Z,99526.47
2022-08-03T04:54:50.193Z,99517.42
2022-08-03T04:55:51.274Z,99517.28
2022-08-03T04:56:54.077Z,99522.38
2022-08-03T04:57:57.222Z,99527.23
2022-08-03T04:58:59.635Z,99525.89
2022-08-03T05:00:03.825Z,99522.55
2022-08-03T05:01:06.357Z,99514.88
2022-08-03T05:02:08.723Z,99522.07
2022-08-03T05:03:19.506Z,99522.76
2022-08-03T05:04:16.002Z,99529.31
2022-08-03T05:05:18.367Z,99532.95
2022-08-03T05:06:27.436Z,99529.55
2022-08-03T05:07:36.169Z,99535.98
2022-08-03T05:08:35.115Z,99531.68
2022-08-03T05:09:52.176Z,99530.44
2022-08-03T05:11:46.669Z,99527.83
2022-08-03T05:12:48.950Z,99532.19
2022-08-03T05:13:51.798Z,99531.59
2022-08-03T05:14:54.465Z,99528.27
2022-08-03T05:15:56.862Z,99530.10
2022-08-03T05:16:59.711Z,99528.62
2022-08-03T05:18:02.071Z,99535.05
2022-08-03T05:19:05.555Z,99532.72
2022-08-03T05:20:12.843Z,99544.50
2022-08-03T05:21:15.600Z,99539.88
2022-08-03T05:22:17.922Z,99538.19
2022-08-03T05:23:20.956Z,99542.05
2022-08-03T05:24:23.547Z,99544.61
2022-08-03T05:25:27.527Z,99539.94
2022-08-03T05:26:31.677Z,99536.75
2022-08-03T05:27:34.231Z,99538.95
2022-08-03T05:28:36.639Z,99542.78
2022-08-03T05:29:39.441Z,99539.80
2022-08-03T05:30:42.049Z,99547.48
2022-08-03T05:31:44.894Z,99547.20
2022-08-03T05:32:47.127Z,99552.32
2022-08-03T05:33:50.836Z,99549.52
2022-08-03T05:34:53.149Z,99554.78
2022-08-03T05:36:03.421Z,99550.24
2022-08-03T05:37:00.971Z,99550.35
2022-08-03T05:38:04.697Z,99552.20
2022-08-03T05:39:08.263Z,99554.86
2022-08-03T05:40:12.517Z,99549.72
2022-08-03T05:41:22.906Z,99546.29
2022-08-03T05:42:20.270Z,99550.03
2022-08-03T05:43:22.614Z,99554.75
2022-08-03T05:44:25.298Z,99548.05
2022-08-03T05:45:28.494Z,99547.39
2022-08-03T05:46:31.453Z,99549.58
2022-08-03T05:47:33.809Z,99551.77
2022-08-03T05:48:36.049Z,99545.86
2022-08-03T05:49:38.507Z,99544.52
2022-08-03T05:50:42.952Z,99543.24
2022-08-03T05:51:46.117Z,99535.65
2022-08-03T05:52:49.500Z,99542.33
2022-08-03T05:53:52.284Z,99540.11
2022-08-03T05:54:57.110Z,99536.88
2022-08-03T05:56:02.510Z,99544.58
2022-08-03T05:57:04.273Z,99543.33
2022-08-03T05:58:07.965Z,99545.61
2022-08-03T05:59:35.922Z,99543.37
2022-08-03T06:00:16.896Z,99542.83
2022-08-03T06:01:19.749Z,99535.36
2022-08-03T06:02:22.640Z,99538.65
2022-08-03T06:03:25.146Z,99541.80
2022-08-03T06:04:27.767Z,99547.63
2022-08-03T06:05:30.320Z,99543.69
2022-08-03T06:06:34.137Z,99547.95
2022-08-03T06:07:37.118Z,99539.73
2022-08-03T06:08:40.197Z,99539.46
2022-08-03T06:10:34.109Z,99543.73
2022-08-03T06:10:47.706Z,99542.72
2022-08-03T06:11:50.654Z,99535.23
2022-08-03T06:12:53.023Z,99539.50
2022-08-03T06:13:56.142Z,99533.83
2022-08-03T06:14:58.790Z,99532.72
2022-08-03T06:16:01.960Z,99532.58
2022-08-03T06:17:04.363Z,99528.17
2022-08-03T06:18:07.517Z,99537.26
2022-08-03T06:19:09.853Z,99537.40
2022-08-03T06:20:13.451Z,99529.33
2022-08-03T06:21:16.548Z,99543.03
2022-08-03T06:22:19.171Z,99534.95
2022-08-03T06:23:52.643Z,99535.69
2022-08-03T06:24:27.592Z,99541.91
2022-08-03T06:25:33.364Z,99538.09
2022-08-03T06:26:36.938Z,99540.65
2022-08-03T06:27:39.381Z,99542.22
2022-08-03T06:28:52.357Z,99545.61
2022-08-03T06:29:50.519Z,99546.34
2022-08-03T06:30:53.021Z,99538.97
2022-08-03T06:31:55.567Z,99536.02
2022-08-03T06:32:57.768Z,99543.67
2022-08-03T06:34:32.873Z,99547.94
2022-08-03T06:35:09.033Z,99544.83
2022-08-03T06:36:12.371Z,99554.33
2022-08-03T06:37:15.510Z,99551.52
2022-08-03T06:38:18.499Z,99551.24
2022-08-03T06:39:23.495Z,99553.83
2022-08-03T06:40:27.518Z,99555.36
2022-08-03T06:41:30.686Z,99552.41
2022-08-03T06:42:35.013Z,99548.85
2022-08-03T06:43:38.202Z,99550.42
2022-08-03T06:44:42.612Z,99555.66
2022-08-03T06:45:44.893Z,99551.00
2022-08-03T06:46:49.825Z,99549.01
2022-08-03T06:48:04.372Z,99557.67
2022-08-03T06:49:07.391Z,99546.90
2022-08-03T06:50:16.185Z,99547.73
2022-08-03T06:51:14.911Z,99550.44
2022-08-03T06:52:38.244Z,99545.05
2022-08-03T06:53:21.756Z,99545.88
2022-08-03T06:54:24.553Z,99544.91
2022-08-03T06:55:27.361Z,99547.59
2022-08-03T06:56:30.997Z,99541.22
2022-08-03T06:57:33.298Z,99545.48
2022-08-03T06:58:36.846Z,99541.81
2022-08-03T07:00:08.544Z,99538.09
2022-08-03T07:00:44.851Z,99546.04
2022-08-03T07:01:49.491Z,99543.23
2022-08-03T07:02:57.943Z,99546.77
2022-08-03T07:03:57.097Z,99551.17
2022-08-03T07:04:59.931Z,99542.07
2022-08-03T07:06:03.465Z,99548.33
2022-08-03T07:07:07.079Z,99546.33
2022-08-03T07:08:10.118Z,99539.81
2022-08-03T07:09:12.761Z,99538.69
2022-08-03T07:10:18.227Z,99546.77
2022-08-03T07:11:21.701Z,99542.22
2022-08-03T07:12:25.525Z,99539.38
2022-08-03T07:13:29.436Z,99547.46
2022-08-03T07:14:32.297Z,99545.49
2022-08-03T07:15:38.251Z,99550.73
2022-08-03T07:16:39.430Z,99544.36
2022-08-03T07:17:42.025Z,99548.73
2022-08-03T07:18:44.459Z,99553.14
2022-08-03T07:19:46.971Z,99545.78
2022-08-03T07:20:49.451Z,99545.78
2022-08-03T07:21:53.530Z,99541.23
2022-08-03T07:22:56.348Z,99554.56
2022-08-03T07:23:59.368Z,99550.05
2022-08-03T07:25:02.114Z,99550.73
2022-08-03T07:26:05.300Z,99555.14
2022-08-03T07:27:08.611Z,99554.13
2022-08-03T07:28:11.358Z,99556.70
2022-08-03T07:29:15.010Z,99557.55
2022-08-03T07:30:19.465Z,99558.39
2022-08-03T07:31:21.990Z,99562.94
2022-08-03T07:32:24.463Z,99560.68
2022-08-03T07:33:27.360Z,99561.95
2022-08-03T07:34:29.981Z,99554.27
2022-08-03T07:35:32.781Z,99559.11
2022-08-03T07:36:36.162Z,99567.59
2022-08-03T07:37:39.780Z,99562.78
2022-08-03T07:38:44.017Z,99567.73
2022-08-03T07:39:47.166Z,99567.33
2022-08-03T07:40:50.197Z,99572.97
2022-08-03T07:41:53.442Z,99567.02
2022-08-03T07:42:56.331Z,99560.91
2022-08-03T07:43:58.972Z,99567.42
2022-08-03T07:45:04.501Z,99575.38
2022-08-03T07:46:08.809Z,99575.38
2022-08-03T07:47:22.420Z,99572.93
2022-08-03T07:48:15.679Z,99577.47
2022-08-03T07:49:18.209Z,99583.84
2022-08-03T07:50:22.046Z,99588.39
2022-08-03T07:51:25.323Z,99583.25
2022-08-03T07:52:28.435Z,99584.09
2022-08-03T07:53:31.357Z,99587.91
2022-08-03T07:54:35.543Z,99585.35
2022-08-03T07:55:38.635Z,99592.59
2022-08-03T07:56:43.432Z,99592.73
2022-08-03T07:57:46.155Z,99597.98
2022-08-03T07:58:48.623Z,99594.55
2022-08-03T08:00:01.772Z,99591.16
2022-08-03T08:00:55.396Z,99590.56
2022-08-03T08:01:57.824Z,99601.62
2022-08-03T08:03:01.407Z,99601.62
2022-08-03T08:04:04.525Z,99591.83
2022-08-03T08:05:08.477Z,99596.51
2022-08-03T08:06:11.198Z,99595.64
2022-08-03T08:07:14.597Z,99599.20
2022-08-03T08:08:18.066Z,99599.20
2022-08-03T08:09:20.649Z,99601.75
2022-08-03T08:10:24.917Z,99601.75
2022-08-03T08:11:27.415Z,99598.47
2022-08-03T08:12:30.837Z,99605.84
2022-08-03T08:13:33.261Z,99603.16
2022-08-03T08:14:35.829Z,99598.47
2022-08-03T08:15:43.686Z,99591.27
2022-08-03T08:16:43.007Z,99599.20
2022-08-03T08:19:00.727Z,99597.10
2022-08-03T08:20:03.992Z,99597.07
2022-08-03T08:21:09.298Z,99603.33
2022-08-03T08:22:12.545Z,99597.80
2022-08-03T08:23:37.879Z,99604.87
2022-08-03T08:24:19.739Z,99602.06
2022-08-03T08:25:23.003Z,99603.61
2022-08-03T08:26:27.720Z,99598.95
2022-08-03T08:28:31.637Z,99590.15
2022-08-03T08:28:34.595Z,99604.66
2022-08-03T08:29:38.078Z,99608.19
2022-08-03T08:30:42.490Z,99594.72
2022-08-03T08:31:44.853Z,99602.69
2022-08-03T08:32:47.934Z,99599.86
2022-08-03T08:34:06.682Z,99597.89
2022-08-03T08:34:55.724Z,99598.73
2022-08-03T08:35:58.000Z,99612.06
2022-08-03T08:37:00.787Z,99608.67
2022-08-03T08:38:05.733Z,99615.03
2022-08-03T08:39:07.426Z,99612.48
2022-08-03T08:40:13.204Z,99608.08
2022-08-03T08:41:16.060Z,99609.79
2022-08-03T08:42:18.742Z,99608.81
2022-08-03T08:43:21.592Z,99618.56
2022-08-03T08:44:24.357Z,99612.06
2022-08-03T08:45:26.936Z,99620.73
2022-08-03T08:46:32.131Z,99617.75
2022-08-03T08:47:51.075Z,99613.09
2022-08-03T08:48:42.649Z,99615.51
2022-08-03T08:50:04.060Z,99612.53
2022-08-03T08:50:55.739Z,99614.10
2022-08-03T08:52:00.478Z,99616.37
2022-08-03T08:53:03.368Z,99611.71
2022-08-03T08:54:07.522Z,99617.80
2022-08-03T08:55:12.143Z,99621.36
2022-08-03T08:56:14.919Z,99621.36
2022-08-03T08:57:40.689Z,99621.47
2022-08-03T08:58:23.949Z,99620.49
2022-08-03T08:59:26.634Z,99617.80
2022-08-03T09:00:33.324Z,99622.20
2022-08-03T09:01:38.502Z,99621.36
2022-08-03T09:03:55.005Z,99616.83
2022-08-03T09:04:58.181Z,99618.67
2022-08-03T09:06:03.802Z,99624.90
2022-08-03T09:07:20.073Z,99612.13
2022-08-03T09:08:14.176Z,99615.69
2022-08-03T09:10:01.197Z,99612.85
2022-08-03T09:10:22.427Z,99614.28
2022-08-03T09:11:52.470Z,99613.99
2022-08-03T09:12:41.536Z,99609.30
2022-08-03T09:13:34.592Z,99610.03
2022-08-03T09:14:49.745Z,99617.97
2022-08-03T09:15:41.364Z,99609.73
2022-08-03T09:18:09.002Z,99610.22
2022-08-03T09:19:12.824Z,99607.48
2022-08-03T09:20:18.791Z,99599.54
2022-08-03T09:21:32.931Z,99603.08
2022-08-03T09:22:29.115Z,99600.23
2022-08-03T09:25:22.864Z,99600.02
2022-08-03T09:26:05.152Z,99600.09
2022-08-03T09:27:12.003Z,99598.27
2022-08-03T09:28:52.874Z,99583.92
2022-08-03T09:29:22.821Z,99593.72
2022-08-03T09:30:34.067Z,99595.58
2022-08-03T09:31:32.766Z,99603.52
2022-08-03T09:32:35.233Z,99595.43
2022-08-03T09:33:47.471Z,99600.81
2022-08-03T09:34:58.106Z,99588.18
2022-08-03T09:35:58.961Z,99605.08
2022-08-03T09:37:02.174Z,99608.62
2022-08-03T09:38:14.313Z,99603.11
2022-08-03T09:39:19.098Z,99601.29
2022-08-03T09:41:51.810Z,99605.52
2022-08-03T09:42:58.377Z,99614.48
2022-08-03T09:44:01.767Z,99608.36
2022-08-03T09:45:05.010Z,99606.39
2022-08-03T09:46:08.296Z,99609.92
2022-08-03T09:47:11.362Z,99615.03
2022-08-03T09:48:28.275Z,99606.94
2022-08-03T09:49:31.841Z,99606.94
2022-08-03T09:52:31.676Z,99612.06
2022-08-03T09:53:01.234Z,99606.53
2022-08-03T09:54:03.806Z,99612.77
2022-08-03T09:56:30.579Z,99613.48
2022-08-03T09:56:34.916Z,99608.94
2022-08-03T09:57:24.101Z,99611.48
2022-08-03T09:58:27.763Z,99608.65
2022-08-03T09:59:32.188Z,99605.95
2022-08-03T10:00:55.402Z,99613.89
2022-08-03T10:01:58.174Z,99613.60
2022-08-03T10:03:05.800Z,99605.52
2022-08-03T10:04:15.523Z,99614.62
2022-08-03T10:05:19.651Z,99611.05
2022-08-03T10:06:22.785Z,99613.60
2022-08-03T10:07:26.889Z,99618.88
2022-08-03T10:08:30.189Z,99613.34
2022-08-03T10:09:33.476Z,99617.72
2022-08-03T10:10:44.018Z,99622.27
2022-08-03T10:11:47.530Z,99620.56
2022-08-03T10:12:49.754Z,99631.20
2022-08-03T10:13:57.963Z,99619.58
2022-08-03T10:14:56.998Z,99629.52
2022-08-03T10:16:23.291Z,99624.12
2022-08-03T10:17:05.988Z,99625.95
2022-08-03T10:18:08.394Z,99624.12
2022-08-03T10:19:10.571Z,99626.67
2022-08-03T10:20:14.744Z,99627.37
2022-08-03T10:21:18.186Z,99628.09
2022-08-03T10:23:38.434Z,99635.05
2022-08-03T10:24:54.019Z,99627.11
2022-08-03T10:25:57.878Z,99628.79
2022-08-03T10:27:07.471Z,99629.66
2022-08-03T10:28:12.091Z,99630.65
2022-08-03T10:29:21.303Z,99624.41
2022-08-03T10:30:26.447Z,99628.79
2022-08-03T10:31:32.986Z,99623.39
2022-08-03T10:32:40.909Z,99623.39
2022-08-03T10:33:53.308Z,99631.48
2022-08-03T10:35:19.700Z,99627.80
2022-08-03T10:36:11.098Z,99626.81
2022-08-03T10:37:13.412Z,99626.97
2022-08-03T10:38:25.701Z,99628.64
2022-08-03T10:39:28.851Z,99632.21
2022-08-03T10:41:42.702Z,99624.81
2022-08-03T10:42:45.992Z,99625.80
2022-08-03T10:44:00.594Z,99636.59
2022-08-03T10:45:09.415Z,99631.08
2022-08-03T10:46:17.771Z,99628.09
2022-08-03T10:48:36.079Z,99619.83
2022-08-03T10:49:38.768Z,99634.32
2022-08-03T10:50:41.189Z,99623.53
2022-08-03T10:51:52.765Z,99623.53
2022-08-03T10:54:30.765Z,99622.53
2022-08-03T10:55:38.707Z,99623.53
2022-08-03T10:56:48.701Z,99623.53
2022-08-03T10:57:50.204Z,99619.84
2022-08-03T10:58:57.339Z,99616.16
2022-08-03T10:59:59.146Z,99611.61
2022-08-03T11:01:04.272Z,99612.45
2022-08-03T11:02:13.780Z,99615.03
2022-08-03T11:03:18.359Z,99606.94
2022-08-03T11:04:21.837Z,99605.08
2022-08-03T11:05:25.521Z,99600.52
2022-08-03T11:06:37.244Z,99607.63
2022-08-03T11:07:38.878Z,99613.02
2022-08-03T11:08:42.288Z,99610.33
2022-08-03T11:09:48.523Z,99612.03
2022-08-03T11:12:28.996Z,99610.77
2022-08-03T11:13:31.889Z,99604.48
2022-08-03T11:14:46.123Z,99604.48
2022-08-03T11:15:51.686Z,99598.10
2022-08-03T11:17:07.185Z,99598.10
2022-08-03T11:18:13.351Z,99591.86
2022-08-03T11:19:18.083Z,99591.86
2022-08-03T11:21:52.237Z,99596.25
2022-08-03T11:22:54.703Z,99597.11
2022-08-03T11:24:03.444Z,99598.94
2022-08-03T11:25:03.671Z,99594.41
2022-08-03T11:26:17.204Z,99598.10
2022-08-03T11:27:32.464Z,99597.27
2022-08-03T11:28:34.841Z,99600.65
2022-08-03T11:29:37.118Z,99597.95
2022-08-03T11:30:41.103Z,99589.02
2022-08-03T11:31:51.869Z,99605.06
2022-08-03T11:32:50.491Z,99595.98
2022-08-03T11:34:07.471Z,99597.66
2022-08-03T11:35:18.925Z,99590.58
2022-08-03T11:36:32.209Z,99601.38
2022-08-03T11:37:31.548Z,99599.81
2022-08-03T11:38:31.090Z,99602.51
2022-08-03T11:39:40.773Z,99604.33
2022-08-03T11:40:48.727Z,99613.45
2022-08-03T11:41:52.574Z,99608.31
2022-08-03T11:42:54.981Z,99600.23
2022-08-03T11:43:57.256Z,99611.89
2022-08-03T11:45:01.187Z,99613.71
2022-08-03T11:46:09.313Z,99610.17
2022-08-03T11:47:13.420Z,99602.23
2022-08-03T11:48:17.258Z,99610.47
2022-08-03T11:49:19.739Z,99595.13
2022-08-03T11:50:24.108Z,99593.71
2022-08-03T11:51:28.337Z,99593.71
2022-08-03T11:52:34.634Z,99591.30
2022-08-03T11:53:41.945Z,99590.45
2022-08-03T11:54:42.547Z,99593.15
2022-08-03T11:55:45.601Z,99591.30
2022-08-03T11:56:49.516Z,99578.64
2022-08-03T11:59:18.754Z,99587.61
2022-08-03T11:59:18.813Z,99589.44
2022-08-03T12:00:03.580Z,99573.97
2022-08-03T12:01:07.160Z,99586.62
2022-08-03T12:02:10.567Z,99579.36
2022-08-03T12:03:14.602Z,99582.21
2022-08-03T12:04:16.870Z,99580.35
2022-08-03T12:05:19.355Z,99593.00
2022-08-03T12:06:24.349Z,99587.61
2022-08-03T12:08:02.316Z,99577.95
2022-08-03T12:08:33.278Z,99577.95
2022-08-03T12:09:36.105Z,99578.64
2022-08-03T12:10:46.545Z,99584.91
2022-08-03T12:11:58.432Z,99579.36
2022-08-03T12:12:57.671Z,99586.47
2022-08-03T12:14:48.823Z,99588.15
2022-08-03T12:15:05.078Z,99589.86
2022-08-03T12:16:07.987Z,99589.70
2022-08-03T12:17:10.116Z,99586.02
2022-08-03T12:18:15.827Z,99582.34
2022-08-03T12:19:18.594Z,99583.17
2022-08-03T12:20:34.549Z,99587.58
2022-08-03T12:21:30.538Z,99580.33
2022-08-03T12:22:36.158Z,99579.34
2022-08-03T12:23:39.466Z,99576.52
2022-08-03T12:25:59.289Z,99574.63
2022-08-03T12:27:02.609Z,99580.93
2022-08-03T12:28:36.753Z,99575.53
2022-08-03T12:29:23.649Z,99585.34
2022-08-03T12:30:26.520Z,99582.64
2022-08-03T12:31:29.276Z,99585.34
2022-08-03T12:32:32.197Z,99590.73
2022-08-03T12:34:00.698Z,99589.86
2022-08-03T12:35:04.015Z,99588.87
2022-08-03T12:36:08.901Z,99593.44
2022-08-03T12:37:22.130Z,99590.73
2022-08-03T12:38:21.069Z,99590.73
2022-08-03T12:39:25.221Z,99587.17
2022-08-03T12:40:28.467Z,99588.87
2022-08-03T12:41:38.901Z,99585.34
2022-08-03T12:42:42.196Z,99589.03
2022-08-03T12:43:48.438Z,99595.41
2022-08-03T12:44:56.453Z,99592.71
2022-08-03T12:46:16.276Z,99596.52
2022-08-03T12:47:18.965Z,99598.38
2022-08-03T12:48:21.973Z,99596.66
2022-08-03T12:49:26.407Z,99598.52
2022-08-03T12:50:33.972Z,99599.52
2022-08-03T12:51:50.657Z,99604.07
2022-08-03T12:52:54.232Z,99600.35
2022-08-03T12:53:58.213Z,99607.45
2022-08-03T12:55:01.153Z,99597.50
2022-08-03T12:56:06.232Z,99602.91
2022-08-03T12:57:16.193Z,99598.38
2022-08-03T12:58:19.494Z,99592.98
2022-08-03T13:00:39.093Z,99582.04
2022-08-03T13:01:54.926Z,99584.63
2022-08-03T13:03:05.410Z,99584.63
2022-08-03T13:03:57.163Z,99582.76
2022-08-03T13:05:00.303Z,99589.03
2022-08-03T13:06:02.986Z,99591.58
2022-08-03T13:07:14.175Z,99588.87
2022-08-03T13:08:21.663Z,99588.58